Hauptseite
METAR-TAF:

METAR-TAF

Flughäfen :

Villacoublay, Frankreich

Militärflugplatz Villacoublay

Breite: 48-46N, Länge: 002-12E, Höhe: 177 m

Beobachtung

Neuester Wetterbericht von vor 22 Minuten, um 05:30 UTC
Wind 7 kt aus West
Temperatur 6°C
Luftfeuchtigkeit 87%
Luftdruck 1020 hPa
Sichtweite 10 km oder mehr
keine Wolken unter 1500 m und keine Kumulonimbus oder Gewitterwolken

METAR: LFPV 260530Z AUTO 26007KT CAVOK 06/04 Q1020 NOSIG

Zeit: 07:52 (05:52 UTC)

Prognose

Neuester Wetterbericht von vor 3 Stunden und 52 Minuten, um 02:00 UTC
Gültige Prognose vom 26 um 03 UTC bis 27 um 03 UTC
Wind 10 kt aus West
Sichtweite 10 km oder mehr
keine Wolken unter 1500 m und keine Kumulonimbus oder Gewitterwolken

TAF: LFPV 260200Z 2603/2703 26010KT CAVOK

Wetterbeobachtungen und Prognosen von mehr als 4000 Flughäfen (METAR und TAF Bericht).

Die verfügbaren Stationen werden durch gelbe und rote Markierungen auf der Karte dargestellt.

Führen Sie die Maus auf sie, um den Namen der Station zu sehen.

Darauf klicken, um die Beobachtung von Wetterbeobachtungen und Prognosen zu sehen.

Um die Karte zu ändern : klicken Sie auf den grünen Tasten mit einem schwarzen Kreuz Zum Vergrößern, auf den grünen Button mit einem Gedankenstrich zu verkleinern, oder auf die grünen Pfeile für benachbarte Karten.


METAR-TAF: